createdAt,value
2019-03-15T00:02:08.611Z,7.00
2019-03-15T00:04:48.690Z,7.10
2019-03-15T00:07:28.769Z,7.10
2019-03-15T00:10:08.737Z,7.20
2019-03-15T00:12:48.915Z,7.30
2019-03-15T00:15:29.472Z,7.20
2019-03-15T00:18:09.449Z,7.40
2019-03-15T00:20:49.810Z,7.30
2019-03-15T00:23:29.889Z,7.40
2019-03-15T00:26:10.682Z,7.40
2019-03-15T00:28:50.326Z,7.30
2019-03-15T00:31:30.758Z,7.50
2019-03-15T00:34:11.288Z,7.30
2019-03-15T00:36:51.188Z,7.30
2019-03-15T00:39:31.437Z,7.40
2019-03-15T00:42:11.457Z,7.40
2019-03-15T00:44:51.685Z,7.50
2019-03-15T00:47:32.130Z,7.50
2019-03-15T00:50:12.821Z,7.30
2019-03-15T00:52:52.462Z,7.80
2019-03-15T00:55:32.758Z,7.40
2019-03-15T00:58:13.201Z,7.40
2019-03-15T01:00:53.465Z,7.40
2019-03-15T01:03:33.313Z,7.70
2019-03-15T01:06:00.979Z,7.40
2019-03-15T01:08:28.620Z,7.40
2019-03-15T01:10:56.217Z,7.40
2019-03-15T01:13:23.809Z,7.40
2019-03-15T01:15:51.440Z,7.40
2019-03-15T01:18:38.449Z,7.40
2019-03-15T01:21:18.490Z,7.30
2019-03-15T01:23:58.731Z,7.40
2019-03-15T01:26:38.733Z,7.40
2019-03-15T01:29:19.173Z,7.60
2019-03-15T01:31:59.141Z,7.40
2019-03-15T01:34:39.393Z,7.40
2019-03-15T01:37:19.280Z,7.20
2019-03-15T01:40:00.774Z,7.30
2019-03-15T01:42:40.870Z,7.20
2019-03-15T01:45:20.913Z,7.20
2019-03-15T01:48:00.898Z,7.20
2019-03-15T01:50:41.178Z,7.20
2019-03-15T01:53:20.858Z,7.10
2019-03-15T01:56:01.110Z,7.40
2019-03-15T01:58:41.456Z,7.30
2019-03-15T02:01:21.534Z,7.10
2019-03-15T02:04:01.823Z,7.20
2019-03-15T02:06:41.780Z,7.30
2019-03-15T02:09:21.702Z,7.50
2019-03-15T02:12:01.854Z,7.40
2019-03-15T02:14:42.058Z,7.40
2019-03-15T02:17:22.285Z,7.70
2019-03-15T02:20:02.429Z,7.70
2019-03-15T02:22:42.603Z,8.20
2019-03-15T02:25:22.790Z,7.80
2019-03-15T02:28:02.789Z,7.90
2019-03-15T02:30:43.087Z,8.00
2019-03-15T02:33:23.209Z,8.10
2019-03-15T02:36:03.573Z,8.10
2019-03-15T02:38:43.681Z,8.00
2019-03-15T02:41:23.948Z,8.10
2019-03-15T02:44:04.040Z,8.10
2019-03-15T02:46:44.266Z,7.90
2019-03-15T02:49:24.499Z,8.10
2019-03-15T02:52:04.913Z,7.80
2019-03-15T02:54:44.665Z,8.00
2019-03-15T02:57:25.131Z,7.80
2019-03-15T03:00:05.146Z,7.50
2019-03-15T03:02:45.274Z,7.50
2019-03-15T03:05:25.181Z,7.50
2019-03-15T03:08:05.389Z,7.70
2019-03-15T03:10:45.299Z,7.70
2019-03-15T03:13:25.461Z,7.50
2019-03-15T03:16:05.393Z,7.40
2019-03-15T03:18:45.755Z,7.50
2019-03-15T03:21:25.524Z,7.40
2019-03-15T03:24:05.649Z,7.40
2019-03-15T03:26:45.733Z,7.20
2019-03-15T03:29:25.806Z,7.40
2019-03-15T03:32:05.956Z,7.50
2019-03-15T03:34:46.219Z,7.40
2019-03-15T03:37:26.318Z,7.30
2019-03-15T03:40:06.581Z,7.30
2019-03-15T03:42:46.739Z,7.30
2019-03-15T03:45:27.139Z,7.20
2019-03-15T03:48:07.059Z,7.40
2019-03-15T03:50:47.428Z,7.60
2019-03-15T03:53:27.350Z,7.40
2019-03-15T03:56:07.508Z,7.40
2019-03-15T03:58:47.601Z,7.40
2019-03-15T04:01:27.837Z,7.40
2019-03-15T04:04:08.114Z,7.30
2019-03-15T04:06:48.203Z,6.90
2019-03-15T04:09:28.294Z,7.00
2019-03-15T04:12:08.114Z,7.10
2019-03-15T04:14:49.579Z,6.80
2019-03-15T04:17:29.645Z,6.90
2019-03-15T04:20:09.842Z,6.90
2019-03-15T04:22:50.183Z,6.60
2019-03-15T04:25:30.537Z,6.80
2019-03-15T04:28:10.381Z,7.20
2019-03-15T04:30:50.634Z,7.20
2019-03-15T04:33:30.597Z,7.50
2019-03-15T04:36:10.917Z,7.30
2019-03-15T04:38:50.898Z,7.20
2019-03-15T04:41:31.041Z,7.30
2019-03-15T04:44:11.069Z,7.20
2019-03-15T04:46:51.553Z,7.10
2019-03-15T04:49:31.621Z,7.60
2019-03-15T04:52:11.763Z,7.70
2019-03-15T04:54:52.125Z,7.90
2019-03-15T04:57:32.191Z,7.80
2019-03-15T05:00:12.065Z,7.90
2019-03-15T05:02:51.998Z,8.00
2019-03-15T05:05:31.972Z,8.00
2019-03-15T05:08:11.849Z,7.90
2019-03-15T05:10:52.130Z,7.80
2019-03-15T05:13:32.204Z,7.80
2019-03-15T05:16:12.410Z,7.80
2019-03-15T05:18:52.564Z,7.50
2019-03-15T05:21:20.304Z,7.60
2019-03-15T05:24:26.737Z,7.70
2019-03-15T05:27:13.757Z,7.70
2019-03-15T05:29:54.175Z,7.60
2019-03-15T05:32:34.102Z,7.50
2019-03-15T05:35:14.191Z,7.70
2019-03-15T05:37:54.662Z,7.30
2019-03-15T05:40:22.262Z,8.00
2019-03-15T05:43:01.957Z,7.70
2019-03-15T05:45:41.838Z,7.70
2019-03-15T05:48:22.062Z,7.80
2019-03-15T05:50:49.769Z,7.50
2019-03-15T05:53:37.040Z,7.70
2019-03-15T05:56:24.054Z,7.80
2019-03-15T05:58:51.741Z,8.20
2019-03-15T06:01:38.769Z,8.30
2019-03-15T06:04:25.822Z,8.50
2019-03-15T06:07:05.802Z,8.70
2019-03-15T06:09:45.925Z,8.80
2019-03-15T06:12:26.109Z,8.80
2019-03-15T06:15:05.957Z,8.50
2019-03-15T06:17:46.058Z,8.60
2019-03-15T06:20:26.361Z,8.50
2019-03-15T06:23:06.450Z,8.60
2019-03-15T06:25:50.383Z,8.40
2019-03-15T06:28:30.777Z,8.10
2019-03-15T06:31:10.765Z,8.00
2019-03-15T06:33:50.831Z,7.80
2019-03-15T06:36:31.358Z,7.70
2019-03-15T06:39:09.622Z,7.80
2019-03-15T06:41:56.686Z,8.20
2019-03-15T06:44:39.437Z,8.00
2019-03-15T06:47:19.340Z,7.90
2019-03-15T06:50:00.324Z,7.70
2019-03-15T06:52:40.589Z,7.90
2019-03-15T06:55:20.606Z,8.20
2019-03-15T06:58:01.009Z,8.10
2019-03-15T07:00:41.001Z,7.90
2019-03-15T07:03:20.977Z,7.90
2019-03-15T07:06:01.232Z,7.80
2019-03-15T07:08:41.267Z,7.70
2019-03-15T07:11:21.405Z,7.70
2019-03-15T07:14:01.365Z,7.70
2019-03-15T07:16:41.493Z,7.60
2019-03-15T07:19:28.904Z,7.50
2019-03-15T07:22:03.801Z,7.80
2019-03-15T07:24:44.082Z,8.00
2019-03-15T07:30:23.418Z,7.90
2019-03-15T07:39:17.437Z,7.80
2019-03-15T07:41:57.399Z,8.00
2019-03-15T07:44:37.717Z,7.70
2019-03-15T07:47:17.598Z,7.90
2019-03-15T07:49:57.705Z,7.70
2019-03-15T07:52:37.590Z,7.70
2019-03-15T07:55:17.908Z,7.70
2019-03-15T07:57:58.095Z,8.00
2019-03-15T08:00:38.092Z,7.90
2019-03-15T08:03:18.117Z,7.90
2019-03-15T08:05:58.385Z,7.80
2019-03-15T08:08:38.920Z,7.30
2019-03-15T08:11:19.834Z,7.30
2019-03-15T08:13:59.738Z,7.20
2019-03-15T08:16:40.155Z,7.70
2019-03-15T08:19:20.591Z,7.60
2019-03-15T08:21:48.208Z,7.70
2019-03-15T08:24:36.640Z,7.70
2019-03-15T08:27:24.217Z,7.60
2019-03-15T08:30:03.830Z,7.60
2019-03-15T08:32:44.343Z,7.60
2019-03-15T08:35:24.609Z,7.50
2019-03-15T08:38:05.526Z,7.70
2019-03-15T08:40:46.322Z,7.50
2019-03-15T08:43:26.222Z,7.40
2019-03-15T08:46:06.826Z,7.20
2019-03-15T08:48:46.591Z,7.20
2019-03-15T08:51:26.702Z,7.20
2019-03-15T08:54:06.784Z,7.10
2019-03-15T08:56:34.552Z,7.10
2019-03-15T08:59:02.222Z,6.80
2019-03-15T09:01:29.911Z,6.90
2019-03-15T09:03:57.629Z,6.70
2019-03-15T09:06:25.288Z,6.70
2019-03-15T09:08:53.041Z,6.60
2019-03-15T09:11:20.763Z,6.60
2019-03-15T09:13:49.366Z,6.60
2019-03-15T09:16:36.525Z,6.60
2019-03-15T09:19:17.035Z,6.70
2019-03-15T09:22:00.344Z,6.60
2019-03-15T09:27:37.726Z,6.70
2019-03-15T09:30:23.633Z,6.60
2019-03-15T09:33:01.852Z,6.70
2019-03-15T09:35:41.584Z,6.70
2019-03-15T09:38:22.191Z,6.90
2019-03-15T09:41:02.686Z,7.00
2019-03-15T09:43:45.385Z,6.90
2019-03-15T09:46:25.046Z,7.30
2019-03-15T09:49:05.152Z,7.20
2019-03-15T09:51:45.201Z,7.40
2019-03-15T09:54:26.310Z,7.20
2019-03-15T09:57:06.444Z,7.10
2019-03-15T09:59:46.486Z,7.40
2019-03-15T10:02:30.747Z,7.30
2019-03-15T10:05:11.525Z,7.10
2019-03-15T10:07:52.186Z,7.20
2019-03-15T10:10:32.317Z,7.20
2019-03-15T10:13:13.260Z,7.40
2019-03-15T10:15:55.688Z,7.30
2019-03-15T10:18:36.237Z,7.30
2019-03-15T10:21:15.937Z,7.20
2019-03-15T10:23:55.743Z,7.30
2019-03-15T10:26:23.468Z,7.40
2019-03-15T10:29:15.730Z,7.60
2019-03-15T10:31:52.121Z,7.80
2019-03-15T10:34:32.153Z,7.70
2019-03-15T10:37:12.185Z,8.00
2019-03-15T10:39:52.349Z,7.70
2019-03-15T10:42:32.546Z,7.90
2019-03-15T10:45:12.793Z,7.80
2019-03-15T10:47:53.038Z,7.80
2019-03-15T10:50:33.140Z,7.80
2019-03-15T10:53:13.346Z,8.00
2019-03-15T10:56:00.074Z,8.00
2019-03-15T10:58:35.442Z,8.00
2019-03-15T11:01:15.542Z,7.80
2019-03-15T11:03:55.809Z,8.10
2019-03-15T11:06:35.774Z,8.10
2019-03-15T11:09:15.835Z,8.20
2019-03-15T11:11:56.432Z,7.90
2019-03-15T11:17:35.578Z,8.10
2019-03-15T11:20:15.716Z,8.30
2019-03-15T11:22:56.042Z,8.30
2019-03-15T11:25:36.886Z,8.20
2019-03-15T11:28:17.248Z,8.10
2019-03-15T11:31:00.528Z,8.10
2019-03-15T11:33:39.623Z,8.20
2019-03-15T11:36:21.215Z,8.10
2019-03-15T11:39:01.986Z,8.00
2019-03-15T11:41:43.168Z,8.00
2019-03-15T11:44:23.220Z,8.00
2019-03-15T11:47:03.264Z,8.00
2019-03-15T11:49:43.447Z,7.90
2019-03-15T11:52:23.602Z,7.90
2019-03-15T11:55:03.744Z,7.70
2019-03-15T11:57:43.990Z,7.70
2019-03-15T12:00:24.145Z,7.90
2019-03-15T12:03:04.001Z,8.10
2019-03-15T12:05:44.062Z,8.20
2019-03-15T12:08:24.361Z,8.20
2019-03-15T12:11:04.531Z,8.40
2019-03-15T12:13:44.654Z,8.20
2019-03-15T12:16:24.729Z,8.20
2019-03-15T12:19:04.693Z,8.20
2019-03-15T12:21:44.945Z,8.40
2019-03-15T12:24:24.970Z,8.10
2019-03-15T12:27:05.386Z,8.60
2019-03-15T12:29:45.820Z,8.40
2019-03-15T12:32:25.815Z,8.50
2019-03-15T12:35:05.930Z,8.40
2019-03-15T12:37:46.106Z,8.30
2019-03-15T12:40:26.278Z,8.30
2019-03-15T12:42:54.126Z,8.40
2019-03-15T12:45:34.433Z,8.20
2019-03-15T12:48:14.759Z,8.10
2019-03-15T12:50:55.027Z,8.10
2019-03-15T12:53:34.965Z,8.20
2019-03-15T12:56:16.545Z,8.30
2019-03-15T12:58:57.014Z,8.60
2019-03-15T13:01:24.774Z,8.60
2019-03-15T13:07:05.151Z,8.40
2019-03-15T13:09:52.529Z,8.50
2019-03-15T13:12:20.417Z,8.60
2019-03-15T13:15:08.782Z,8.70
2019-03-15T13:17:48.755Z,8.80
2019-03-15T13:20:29.483Z,8.70
2019-03-15T13:23:10.160Z,8.80
2019-03-15T13:25:50.465Z,8.90
2019-03-15T13:28:30.611Z,9.20
2019-03-15T13:31:10.690Z,8.80
2019-03-15T13:33:51.019Z,9.40
2019-03-15T13:36:31.030Z,9.20
2019-03-15T13:39:10.953Z,9.40
2019-03-15T13:41:38.892Z,9.50
2019-03-15T13:44:27.257Z,9.40
2019-03-15T13:47:07.555Z,9.60
2019-03-15T13:49:49.226Z,9.60
2019-03-15T13:52:29.376Z,9.70
2019-03-15T13:55:09.937Z,9.70
2019-03-15T13:57:41.786Z,9.90
2019-03-15T14:00:28.885Z,9.80
2019-03-15T14:03:09.153Z,9.80
2019-03-15T14:05:49.223Z,9.70
2019-03-15T14:08:31.786Z,9.70
2019-03-15T14:11:12.180Z,9.90
2019-03-15T14:13:52.403Z,10.10
2019-03-15T14:16:32.351Z,10.30
2019-03-15T14:19:12.759Z,10.30
2019-03-15T14:21:52.698Z,10.50
2019-03-15T14:24:25.049Z,10.30
2019-03-15T14:27:12.142Z,10.40
2019-03-15T14:29:59.198Z,10.30
2019-03-15T14:32:41.869Z,10.40
2019-03-15T14:35:21.824Z,10.40
2019-03-15T14:38:02.046Z,10.40
2019-03-15T14:40:42.654Z,10.40
2019-03-15T14:43:22.650Z,10.40
2019-03-15T14:46:02.854Z,10.60
2019-03-15T14:48:43.111Z,10.70
2019-03-15T14:51:23.558Z,11.20
2019-03-15T14:54:03.450Z,11.30
2019-03-15T14:56:43.686Z,11.00
2019-03-15T14:59:23.952Z,11.00
2019-03-15T15:02:04.089Z,11.10
2019-03-15T15:04:44.322Z,11.30
2019-03-15T15:07:24.409Z,11.40
2019-03-15T15:13:03.657Z,11.50
2019-03-15T15:15:43.765Z,11.70
2019-03-15T15:18:23.990Z,11.50
2019-03-15T15:21:03.948Z,11.80
2019-03-15T15:23:44.210Z,11.60
2019-03-15T15:26:24.369Z,11.70
2019-03-15T15:29:04.217Z,11.80
2019-03-15T15:31:44.671Z,11.70
2019-03-15T15:34:24.889Z,11.80
2019-03-15T15:37:04.921Z,12.00
2019-03-15T15:39:44.894Z,11.80
2019-03-15T15:42:25.121Z,11.80
2019-03-15T15:45:05.102Z,11.80
2019-03-15T15:47:45.153Z,11.50
2019-03-15T15:50:25.209Z,11.80
2019-03-15T15:53:05.390Z,11.50
2019-03-15T15:55:45.773Z,11.70
2019-03-15T15:58:25.923Z,11.80
2019-03-15T16:01:05.903Z,12.00
2019-03-15T16:03:46.257Z,11.70
2019-03-15T16:06:26.195Z,11.50
2019-03-15T16:09:06.356Z,11.60
2019-03-15T16:11:46.552Z,11.60
2019-03-15T16:14:26.663Z,11.40
2019-03-15T16:17:06.729Z,11.60
2019-03-15T16:19:46.801Z,11.50
2019-03-15T16:22:27.262Z,11.50
2019-03-15T16:25:07.157Z,11.30
2019-03-15T16:31:00.476Z,11.30
2019-03-15T16:33:28.895Z,11.30
2019-03-15T16:35:56.958Z,11.20
2019-03-15T16:38:44.157Z,11.30
2019-03-15T16:41:24.645Z,11.20
2019-03-15T16:44:04.669Z,11.30
2019-03-15T16:46:45.134Z,11.40
2019-03-15T16:49:25.139Z,11.30
2019-03-15T16:55:04.380Z,11.40
2019-03-15T16:57:44.467Z,11.30
2019-03-15T17:00:24.458Z,11.30
2019-03-15T17:03:04.623Z,11.60
2019-03-15T17:05:44.610Z,11.60
2019-03-15T17:08:25.033Z,11.80
2019-03-15T17:11:05.090Z,11.40
2019-03-15T17:13:44.933Z,11.50
2019-03-15T17:16:25.004Z,11.70
2019-03-15T17:19:05.183Z,11.70
2019-03-15T17:21:45.136Z,11.90
2019-03-15T17:24:25.349Z,11.90
2019-03-15T17:27:05.328Z,11.80
2019-03-15T17:29:45.576Z,11.80
2019-03-15T17:32:25.955Z,12.30
2019-03-15T17:35:06.129Z,12.40
2019-03-15T17:37:46.256Z,12.60
2019-03-15T17:40:26.455Z,12.40
2019-03-15T17:43:06.599Z,12.50
2019-03-15T17:45:46.833Z,12.20
2019-03-15T17:48:26.880Z,12.00
2019-03-15T17:51:09.142Z,12.60
2019-03-15T17:53:51.693Z,12.40
2019-03-15T17:56:31.733Z,12.60
2019-03-15T17:59:12.959Z,12.70
2019-03-15T18:01:52.998Z,12.70
2019-03-15T18:04:33.097Z,12.60
2019-03-15T18:07:13.407Z,12.20
2019-03-15T18:12:55.045Z,12.40
2019-03-15T18:15:35.210Z,12.50
2019-03-15T18:18:15.349Z,12.50
2019-03-15T18:20:55.863Z,12.60
2019-03-15T18:23:35.694Z,12.40
2019-03-15T18:26:15.842Z,12.50
2019-03-15T18:28:56.114Z,12.60
2019-03-15T18:31:36.132Z,12.60
2019-03-15T18:34:16.153Z,12.40
2019-03-15T18:36:56.443Z,12.80
2019-03-15T18:39:36.936Z,12.80
2019-03-15T18:42:15.301Z,12.80
2019-03-15T18:45:02.440Z,13.00
2019-03-15T18:47:43.108Z,12.80
2019-03-15T18:50:23.148Z,13.20
2019-03-15T18:53:03.473Z,13.00
2019-03-15T18:55:43.665Z,13.30
2019-03-15T18:58:23.753Z,13.20
2019-03-15T19:01:03.563Z,13.20
2019-03-15T19:03:44.259Z,13.20
2019-03-15T19:06:22.515Z,13.30
2019-03-15T19:09:03.737Z,13.10
2019-03-15T19:11:44.058Z,13.40
2019-03-15T19:14:24.572Z,13.40
2019-03-15T19:17:04.294Z,13.30
2019-03-15T19:19:44.349Z,13.40
2019-03-15T19:22:26.548Z,13.40
2019-03-15T19:25:06.920Z,13.10
2019-03-15T19:27:47.009Z,13.20
2019-03-15T19:30:26.760Z,13.30
2019-03-15T19:33:06.701Z,13.50
2019-03-15T19:35:46.512Z,13.70
2019-03-15T19:38:26.848Z,13.50
2019-03-15T19:46:51.548Z,13.40
2019-03-15T19:49:31.693Z,13.50
2019-03-15T19:52:11.819Z,13.40
2019-03-15T19:55:00.585Z,13.50
2019-03-15T19:57:33.905Z,13.20
2019-03-15T20:00:14.369Z,13.40
2019-03-15T20:02:43.201Z,13.50
2019-03-15T20:05:30.436Z,13.40
2019-03-15T20:08:10.784Z,13.40
2019-03-15T20:10:51.076Z,13.30
2019-03-15T20:13:30.871Z,13.50
2019-03-15T20:16:10.845Z,13.50
2019-03-15T20:18:50.979Z,13.40
2019-03-15T20:24:30.578Z,13.50
2019-03-15T20:27:10.798Z,13.50
2019-03-15T20:32:49.867Z,13.50
2019-03-15T20:35:30.042Z,13.50
2019-03-15T20:38:10.433Z,13.70
2019-03-15T20:40:50.711Z,13.80
2019-03-15T20:43:31.141Z,13.60
2019-03-15T20:46:11.444Z,13.60
2019-03-15T20:48:51.914Z,13.50
2019-03-15T20:51:32.154Z,13.60
2019-03-15T20:54:12.134Z,13.70
2019-03-15T20:56:52.476Z,13.60
2019-03-15T20:59:32.426Z,13.50
2019-03-15T21:02:13.019Z,13.50
2019-03-15T21:04:52.779Z,13.50
2019-03-15T21:07:33.072Z,13.60
2019-03-15T21:10:13.151Z,13.30
2019-03-15T21:12:53.545Z,13.50
2019-03-15T21:15:33.827Z,13.50
2019-03-15T21:18:14.105Z,13.50
2019-03-15T21:20:54.306Z,13.60
2019-03-15T21:23:34.745Z,13.60
2019-03-15T21:26:14.489Z,13.40
2019-03-15T21:28:54.588Z,13.30
2019-03-15T21:31:34.638Z,13.30
2019-03-15T21:34:15.175Z,13.40
2019-03-15T21:36:55.315Z,13.30
2019-03-15T21:39:35.576Z,13.20
2019-03-15T21:42:15.916Z,13.30
2019-03-15T21:44:56.377Z,13.30
2019-03-15T21:47:35.999Z,13.30
2019-03-15T21:50:16.191Z,13.20
2019-03-15T21:52:56.407Z,13.30
2019-03-15T21:55:38.660Z,13.30
2019-03-15T21:58:07.057Z,13.50
2019-03-15T22:01:02.182Z,13.50
2019-03-15T22:03:42.990Z,13.40
2019-03-15T22:06:23.357Z,13.50
2019-03-15T22:09:03.886Z,13.30
2019-03-15T22:11:43.966Z,13.30
2019-03-15T22:14:24.143Z,13.10
2019-03-15T22:17:04.142Z,13.10
2019-03-15T22:19:44.231Z,13.00
2019-03-15T22:22:26.532Z,13.30
2019-03-15T22:25:06.598Z,13.20
2019-03-15T22:27:50.001Z,13.20
2019-03-15T22:30:29.009Z,13.30
2019-03-15T22:33:09.301Z,13.20
2019-03-15T22:35:49.367Z,13.30
2019-03-15T22:38:29.514Z,13.20
2019-03-15T22:41:09.687Z,13.40
2019-03-15T22:43:49.837Z,13.30
2019-03-15T22:46:29.873Z,13.50
2019-03-15T22:49:10.238Z,13.10
2019-03-15T22:51:50.246Z,12.90
2019-03-15T22:54:30.716Z,13.30
2019-03-15T22:57:10.692Z,13.50
2019-03-15T22:59:50.915Z,13.60
2019-03-15T23:02:31.324Z,13.60
2019-03-15T23:04:59.446Z,13.50
2019-03-15T23:07:46.582Z,13.30
2019-03-15T23:10:33.790Z,13.20
2019-03-15T23:13:20.984Z,13.20
2019-03-15T23:16:00.564Z,13.30
2019-03-15T23:18:40.951Z,13.30
2019-03-15T23:21:20.655Z,13.50
2019-03-15T23:24:00.982Z,13.40
2019-03-15T23:26:40.918Z,13.30
2019-03-15T23:29:20.886Z,13.50
2019-03-15T23:32:01.108Z,13.40
2019-03-15T23:34:41.239Z,13.50
2019-03-15T23:37:21.342Z,13.70
2019-03-15T23:40:01.679Z,13.50
2019-03-15T23:42:42.066Z,13.30
2019-03-15T23:45:22.320Z,13.10
2019-03-15T23:48:03.922Z,13.10
2019-03-15T23:50:44.511Z,13.10
2019-03-15T23:53:24.656Z,13.00
2019-03-15T23:56:04.882Z,13.10
2019-03-15T23:58:45.151Z,13.20
